Time;durP1;ratioP1;P1;durP2;ratioP2;P2;SDS_P1;SDS_P2;PMS_P1;PMS_P2;Temp;Humidity;BMP_temperature;BMP_pressure;BME280_temperature;BME280_humidity;BME280_pressure;Samples;Min_cycle;Max_cycle;Signal;HPM_P1;HPM_P2
2022/12/23 00:00:05;;;;;;;2.55;0.90;;;;;;;6.33;100.00;95028.91;1028750;28;20085;-69
2022/12/23 00:00:35;;;;;;;3.85;0.82;;;;;;;6.32;100.00;95022.91;1025139;28;20038;-70
2022/12/23 00:01:06;;;;;;;2.67;1.00;;;;;;;6.33;100.00;95023.69;1029649;28;20273;-69
2022/12/23 00:01:36;;;;;;;7.47;1.20;;;;;;;6.32;100.00;95020.31;1034268;28;20029;-68
2022/12/23 00:02:06;;;;;;;6.25;1.17;;;;;;;6.30;100.00;95017.16;1034249;28;20574;-69
2022/12/23 00:02:37;;;;;;;4.15;1.15;;;;;;;6.30;100.00;95016.38;1038097;28;20029;-69
2022/12/23 00:03:08;;;;;;;7.07;1.65;;;;;;;6.30;100.00;95017.16;1030006;28;20026;-70
2022/12/23 00:03:38;;;;;;;3.50;1.52;;;;;;;6.30;100.00;95017.16;1027769;28;20519;-68
2022/12/23 00:04:09;;;;;;;3.67;1.65;;;;;;;6.31;100.00;95010.94;1026395;28;20516;-69
2022/12/23 00:04:39;;;;;;;1.55;0.68;;;;;;;6.32;100.00;95011.72;1025860;28;20030;-70
2022/12/23 00:05:11;;;;;;;5.35;1.17;;;;;;;6.28;100.00;95002.84;1029819;28;20527;-70
2022/12/23 00:05:41;;;;;;;4.75;1.10;;;;;;;6.30;100.00;95006.75;1031371;28;20141;-69
2022/12/23 00:06:13;;;;;;;4.55;1.30;;;;;;;6.29;100.00;95005.19;1032848;28;20268;-69
2022/12/23 00:06:44;;;;;;;1.52;0.75;;;;;;;6.35;100.00;95008.59;1025505;28;20196;-69
2022/12/23 00:07:14;;;;;;;2.95;0.90;;;;;;;6.34;100.00;95005.22;1022333;28;20274;-69
2022/12/23 00:07:45;;;;;;;1.52;1.10;;;;;;;6.32;100.00;95007.28;1028419;28;20038;-69
2022/12/23 00:08:15;;;;;;;5.32;1.13;;;;;;;6.34;100.00;95005.22;1025807;28;20082;-70
2022/12/23 00:08:46;;;;;;;4.40;1.10;;;;;;;6.34;100.00;95007.84;1031633;28;20171;-69
2022/12/23 00:09:16;;;;;;;5.57;1.00;;;;;;;6.35;100.00;95004.19;1023185;28;20568;-69
2022/12/23 00:09:47;;;;;;;2.70;1.00;;;;;;;6.34;100.00;95005.22;1023588;28;20024;-70
2022/12/23 00:10:17;;;;;;;2.90;1.13;;;;;;;6.34;100.00;95005.22;1024297;28;20586;-69
2022/12/23 00:10:48;;;;;;;2.70;0.90;;;;;;;6.31;100.00;95000.50;1026944;28;20042;-69
2022/12/23 00:11:19;;;;;;;1.88;0.77;;;;;;;6.29;100.00;94997.38;1031884;28;20035;-69
2022/12/23 00:15:04;;;;;;;1.77;0.80;;;;;;;6.31;100.00;95007.56;1029962;28;20383;-69
2022/12/23 00:15:11;;;;;;;2.00;0.90;;;;;;;6.25;100.00;94991.09;1036469;28;20884;-69
2022/12/23 00:15:41;;;;;;;5.13;0.77;;;;;;;6.30;100.00;95000.75;1030245;28;20734;-69
2022/12/23 00:16:12;;;;;;;3.88;1.02;;;;;;;6.30;100.00;94996.31;1034238;28;20261;-69
2022/12/23 00:16:43;;;;;;;2.15;1.65;;;;;;;6.32;100.00;95003.91;1034143;28;20033;-69
2022/12/23 00:17:13;;;;;;;3.05;0.93;;;;;;;6.33;100.00;95002.84;1034300;28;20264;-70
2022/12/23 00:17:44;;;;;;;2.63;0.90;;;;;;;6.33;100.00;94997.66;1042181;28;20077;-69
2022/12/23 00:18:14;;;;;;;3.88;1.10;;;;;;;6.34;100.00;95000.00;1038249;28;20119;-68
2022/12/23 00:18:45;;;;;;;2.97;0.73;;;;;;;6.34;100.00;94994.81;1029810;28;20085;-70
2022/12/23 00:19:15;;;;;;;1.63;0.88;;;;;;;6.33;100.00;94998.44;1029748;28;20037;-69
2022/12/23 00:19:46;;;;;;;3.45;1.10;;;;;;;6.34;100.00;94996.63;1029561;28;20293;-71
2022/12/23 00:20:16;;;;;;;2.20;0.90;;;;;;;6.33;100.00;94988.00;1032334;28;20033;-69
2022/12/23 00:20:47;;;;;;;3.65;0.70;;;;;;;6.36;100.00;94997.91;1034238;28;20054;-70
2022/12/23 00:21:17;;;;;;;4.53;0.80;;;;;;;6.34;100.00;94994.03;1033822;28;20034;-69
2022/12/23 00:21:48;;;;;;;3.17;0.70;;;;;;;6.31;100.00;94989.31;1033629;28;20037;-70
2022/12/23 00:22:18;;;;;;;6.32;0.75;;;;;;;6.34;100.00;95000.00;1034209;28;20101;-69
2022/12/23 00:23:04;;;;;;;1.50;0.55;;;;;;;6.34;100.00;95000.00;1038191;28;20022;-69
2022/12/23 00:23:35;;;;;;;2.78;0.73;;;;;;;6.36;100.00;94992.72;1034252;28;20034;-69
2022/12/23 00:24:06;;;;;;;1.92;0.80;;;;;;;6.35;100.00;94996.34;1032488;28;20288;-70
2022/12/23 00:24:36;;;;;;;4.22;1.17;;;;;;;6.34;100.00;94991.41;1029666;28;20833;-67
2022/12/23 00:25:07;;;;;;;4.72;1.02;;;;;;;6.35;100.00;94990.38;1027928;28;20023;-70
2022/12/23 00:25:40;;;;;;;1.27;0.60;;;;;;;6.34;100.00;94983.59;1021360;28;20019;-71
2022/12/23 00:26:15;;;;;;;5.85;1.02;;;;;;;6.28;100.00;94982.00;1029738;28;20030;-69
2022/12/23 00:26:45;;;;;;;4.18;0.80;;;;;;;6.29;100.00;94976.53;1025694;28;20277;-69
2022/12/23 00:27:16;;;;;;;3.00;0.90;;;;;;;6.30;100.00;94974.69;1021724;28;20298;-69
2022/12/23 00:28:00;;;;;;;4.10;1.17;;;;;;;6.30;100.00;94972.09;1021746;29;20382;-69
2022/12/23 00:28:30;;;;;;;1.80;0.90;;;;;;;6.32;100.00;94981.22;1024350;28;20037;-69
2022/12/23 00:29:01;;;;;;;2.53;0.80;;;;;;;6.33;100.00;94971.59;1030606;28;20305;-69
2022/12/23 00:29:31;;;;;;;2.55;0.73;;;;;;;6.33;100.00;94967.16;1034784;28;20045;-69
2022/12/23 00:30:02;;;;;;;3.47;0.57;;;;;;;6.32;100.00;94976.03;1034872;28;20022;-71
2022/12/23 00:30:32;;;;;;;3.00;1.02;;;;;;;6.31;100.00;94971.84;1033651;28;20026;-69
2022/12/23 00:31:07;;;;;;;2.33;0.63;;;;;;;6.33;100.00;94967.16;1026644;28;20713;-69
2022/12/23 00:31:37;;;;;;;4.25;0.95;;;;;;;6.34;100.00;94968.75;1026763;28;20481;-70
2022/12/23 00:32:08;;;;;;;2.88;1.10;;;;;;;6.34;100.00;94981.78;1028699;28;20266;-70
2022/12/23 00:32:38;;;;;;;1.65;0.70;;;;;;;6.35;100.00;94974.75;1031209;28;20528;-69
2022/12/23 00:33:09;;;;;;;3.85;1.00;;;;;;;6.33;100.00;94972.38;1034949;28;20034;-69
2022/12/23 00:33:41;;;;;;;2.22;0.85;;;;;;;6.34;100.00;94963.53;1030824;28;20090;-69
2022/12/23 00:34:12;;;;;;;3.70;0.70;;;;;;;6.35;100.00;94965.09;1029525;28;20025;-69
2022/12/23 00:34:42;;;;;;;5.53;0.90;;;;;;;6.35;100.00;94970.31;1030483;28;20324;-69
2022/12/23 00:35:13;;;;;;;0.77;0.57;;;;;;;6.35;100.00;94967.69;1031146;28;20030;-69
2022/12/23 00:35:43;;;;;;;5.30;0.98;;;;;;;6.36;100.00;94966.66;1030428;28;20130;-70
2022/12/23 00:36:17;;;;;;;2.10;1.05;;;;;;;6.35;100.00;94969.53;1031000;28;20408;-69
2022/12/23 00:36:47;;;;;;;3.22;0.85;;;;;;;6.31;100.00;94971.09;1030623;28;20026;-70
2022/12/23 00:37:18;;;;;;;1.90;0.63;;;;;;;6.34;100.00;94966.13;1027351;28;20372;-68
2022/12/23 00:37:48;;;;;;;2.00;0.70;;;;;;;6.34;100.00;94965.38;1031423;28;20023;-69
2022/12/23 00:43:17;;;;;;;2.60;0.98;;;;;;;6.34;100.00;94963.53;1029894;28;20323;-69
2022/12/23 00:43:48;;;;;;;3.08;0.77;;;;;;;6.31;100.00;94952.84;1027926;28;20774;-70
2022/12/23 00:44:18;;;;;;;5.47;1.05;;;;;;;6.31;100.00;94952.84;1030759;28;20018;-68
2022/12/23 00:44:49;;;;;;;4.20;1.10;;;;;;;6.37;100.00;94963.03;1026508;28;20042;-70
2022/12/23 00:45:19;;;;;;;1.40;0.60;;;;;;;6.38;100.00;94961.19;1027000;28;20666;-69
2022/12/23 00:45:50;;;;;;;1.20;0.60;;;;;;;6.34;100.00;94953.13;1029936;28;20018;-69
2022/12/23 00:46:20;;;;;;;4.53;0.85;;;;;;;6.42;100.00;94961.47;1030791;28;20034;-69
2022/12/23 00:46:51;;;;;;;2.50;0.50;;;;;;;6.43;100.00;94955.22;1036158;28;20083;-67
2022/12/23 00:49:49;;;;;;;2.50;0.45;;;;;;;6.40;100.00;94955.72;1035625;28;20352;-69
2022/12/23 00:50:19;;;;;;;2.08;0.52;;;;;;;6.42;100.00;94961.47;1040451;28;20902;-69
2022/12/23 00:50:50;;;;;;;2.10;0.60;;;;;;;6.42;100.00;94962.25;1043241;28;20077;-70
2022/12/23 00:51:20;;;;;;;1.95;0.80;;;;;;;6.43;100.00;94963.81;1038538;28;20010;-70
2022/12/23 00:51:51;;;;;;;1.10;0.50;;;;;;;6.36;100.00;94955.44;1034874;28;20018;-69
2022/12/23 00:52:21;;;;;;;4.25;0.70;;;;;;;6.37;100.00;94959.63;1026885;28;20070;-69
2022/12/23 00:52:52;;;;;;;2.30;0.75;;;;;;;6.37;100.00;94957.81;1027029;28;20019;-69
2022/12/23 00:53:22;;;;;;;1.90;0.63;;;;;;;6.42;100.00;94953.66;1031026;28;20053;-69
2022/12/23 00:53:52;;;;;;;0.73;0.40;;;;;;;6.39;100.00;94965.38;1031110;28;20411;-69
2022/12/23 00:54:23;;;;;;;2.08;0.50;;;;;;;6.41;100.00;94959.91;1038376;28;20025;-69
2022/12/23 00:54:53;;;;;;;2.08;0.68;;;;;;;6.40;100.00;94955.72;1031058;28;20018;-69
2022/12/23 00:55:24;;;;;;;1.65;0.63;;;;;;;6.38;100.00;94948.97;1030194;28;20081;-69
2022/12/23 00:55:54;;;;;;;1.30;0.60;;;;;;;6.37;100.00;94963.03;1021960;29;20648;-69
2022/12/23 00:56:25;;;;;;;1.40;0.65;;;;;;;6.40;100.00;94963.53;1022730;28;20043;-70
2022/12/23 00:56:55;;;;;;;2.00;0.50;;;;;;;6.41;100.00;94952.09;1028379;28;20587;-69
2022/12/23 00:57:26;;;;;;;2.97;0.85;;;;;;;6.38;100.00;94948.19;1026807;28;20117;-69
2022/12/23 00:57:56;;;;;;;1.85;0.70;;;;;;;6.44;100.00;94962.00;1034909;28;20022;-69
2022/12/23 00:58:27;;;;;;;3.50;0.73;;;;;;;6.48;100.00;94958.63;1030757;28;20052;-69
2022/12/23 00:58:58;;;;;;;0.50;0.38;;;;;;;6.51;100.00;94950.31;1027011;28;20023;-68
2022/12/23 00:59:28;;;;;;;0.88;0.50;;;;;;;6.56;100.00;94959.94;1026600;28;20045;-70
2022/12/23 00:59:59;;;;;;;1.40;0.70;;;;;;;6.51;100.00;94949.53;1030764;28;20901;-69
2022/12/23 01:05:35;;;;;;;5.55;0.90;;;;;;;6.61;100.00;94952.16;1042688;28;20764;-70
2022/12/23 01:06:06;;;;;;;1.75;0.45;;;;;;;6.58;100.00;94953.44;1042823;28;20271;-69
2022/12/23 01:06:36;;;;;;;1.35;0.40;;;;;;;6.69;100.00;94948.25;1038746;28;20260;-69
2022/12/23 01:07:07;;;;;;;1.65;0.35;;;;;;;6.70;100.00;94940.19;1034941;28;20419;-70
2022/12/23 01:07:37;;;;;;;1.75;0.70;;;;;;;6.69;100.00;94940.44;1026435;28;20018;-69
2022/12/23 01:08:09;;;;;;;1.58;0.43;;;;;;;6.70;100.00;94940.19;1022860;29;20082;-68
2022/12/23 01:08:39;;;;;;;1.27;0.45;;;;;;;6.67;100.00;94932.09;1026711;28;20477;-69
2022/12/23 01:09:13;;;;;;;1.90;0.50;;;;;;;6.67;100.00;94947.72;1030709;28;20372;-69
2022/12/23 01:09:43;;;;;;;3.03;0.45;;;;;;;6.64;100.00;94950.84;1034737;28;20527;-68
2022/12/23 01:10:14;;;;;;;0.95;0.47;;;;;;;6.63;100.00;94944.84;1035313;28;20344;-69
2022/12/23 01:10:44;;;;;;;0.30;0.30;;;;;;;6.66;100.00;94946.94;1034607;28;20128;-69
2022/12/23 01:11:14;;;;;;;0.80;0.40;;;;;;;6.71;100.00;94952.19;1035347;28;20032;-70
2022/12/23 01:11:45;;;;;;;2.53;0.70;;;;;;;6.72;100.00;94951.13;1034753;28;20038;-69
2022/12/23 01:12:15;;;;;;;1.33;0.40;;;;;;;6.72;100.00;94945.94;1036431;28;20025;-69
2022/12/23 01:12:46;;;;;;;1.98;0.60;;;;;;;6.75;100.00;94948.03;1043239;28;20028;-69
2022/12/23 01:13:16;;;;;;;1.08;0.40;;;;;;;6.71;100.00;94944.38;1043043;28;20502;-69
2022/12/23 01:13:47;;;;;;;2.20;1.15;;;;;;;6.75;100.00;94947.25;1043014;28;20036;-70
2022/12/23 01:14:17;;;;;;;2.55;0.60;;;;;;;6.80;100.00;94945.41;1038711;28;20430;-69
2022/12/23 01:14:48;;;;;;;1.50;0.43;;;;;;;6.74;100.00;94943.03;1034580;28;20041;-70
2022/12/23 01:15:18;;;;;;;1.38;0.60;;;;;;;6.78;100.00;94924.03;1035029;28;20026;-69
2022/12/23 01:15:49;;;;;;;1.42;0.30;;;;;;;6.89;100.00;94942.31;1033101;28;20041;-69
2022/12/23 01:16:19;;;;;;;2.05;0.60;;;;;;;6.85;100.00;94942.81;1038510;28;20546;-69
2022/12/23 01:16:49;;;;;;;1.35;0.60;;;;;;;6.87;100.00;94941.78;1043214;28;20029;-69
2022/12/23 01:17:20;;;;;;;1.20;0.40;;;;;;;6.79;100.00;94930.03;1038498;28;20032;-70
2022/12/23 01:17:50;;;;;;;0.75;0.40;;;;;;;6.84;100.00;94946.47;1031007;28;20471;-69
2022/12/23 01:18:21;;;;;;;1.10;0.50;;;;;;;6.84;100.00;94946.47;1030388;28;20117;-69
2022/12/23 01:18:51;;;;;;;1.17;0.60;;;;;;;6.81;100.00;94926.13;1030716;28;20037;-69
2022/12/23 01:19:22;;;;;;;2.17;0.40;;;;;;;6.80;100.00;94939.41;1027025;28;20035;-69
2022/12/23 01:19:52;;;;;;;2.08;0.52;;;;;;;6.82;100.00;94948.56;1026703;28;20551;-69
2022/12/23 01:20:23;;;;;;;3.13;0.85;;;;;;;6.81;100.00;94946.22;1026596;28;20029;-70
2022/12/23 01:20:53;;;;;;;1.30;0.40;;;;;;;6.75;100.00;94940.19;1030911;28;20125;-70
2022/12/23 01:21:24;;;;;;;3.67;0.45;;;;;;;6.84;100.00;94945.69;1026522;28;20034;-69
2022/12/23 01:21:54;;;;;;;2.13;0.40;;;;;;;6.85;100.00;94947.25;1022864;29;20871;-69
2022/12/23 01:22:25;;;;;;;0.60;0.50;;;;;;;6.76;100.00;94928.72;1026229;28;20027;-69
2022/12/23 01:22:55;;;;;;;2.38;0.68;;;;;;;6.77;100.00;94940.75;1026735;28;20077;-70
2022/12/23 01:23:26;;;;;;;3.13;0.50;;;;;;;6.82;100.00;94932.91;1026926;28;20047;-70
2022/12/23 01:23:56;;;;;;;2.13;0.35;;;;;;;6.84;100.00;94943.88;1034732;28;20118;-69
2022/12/23 01:24:28;;;;;;;0.85;0.40;;;;;;;6.84;100.00;94933.44;1034616;28;20137;-69
2022/12/23 01:24:58;;;;;;;3.58;0.63;;;;;;;6.80;100.00;94942.03;1030531;28;20037;-69
2022/12/23 01:25:29;;;;;;;2.95;0.47;;;;;;;6.78;100.00;94939.69;1030176;28;20670;-69
2022/12/23 01:26:01;;;;;;;2.92;0.80;;;;;;;6.76;100.00;94939.16;1030774;28;20037;-68
2022/12/23 01:26:32;;;;;;;1.10;0.43;;;;;;;6.78;100.00;94931.88;1035209;28;20265;-69
2022/12/23 01:27:02;;;;;;;0.65;0.32;;;;;;;6.81;100.00;94948.81;1034700;28;20268;-69
2022/12/23 01:27:33;;;;;;;1.88;0.57;;;;;;;6.74;100.00;94935.22;1026939;28;20038;-70
2022/12/23 01:28:03;;;;;;;1.83;0.52;;;;;;;6.83;100.00;94937.06;1026691;28;20031;-70
2022/12/23 01:28:34;;;;;;;2.83;0.70;;;;;;;6.93;100.00;94943.34;1030476;28;20037;-70
2022/12/23 01:29:05;;;;;;;0.50;0.30;;;;;;;6.96;100.00;94941.00;1030786;28;20054;-68
2022/12/23 01:29:35;;;;;;;1.40;0.60;;;;;;;6.92;100.00;94931.38;1030628;28;20324;-69
2022/12/23 01:30:06;;;;;;;0.52;0.30;;;;;;;6.92;100.00;94929.53;1026981;28;20027;-71
2022/12/23 01:30:37;;;;;;;2.28;0.57;;;;;;;6.90;100.00;94946.47;1026448;28;20074;-69
2022/12/23 01:31:08;;;;;;;0.85;0.40;;;;;;;6.87;100.00;94928.75;1030422;28;20783;-68
2022/12/23 01:31:39;;;;;;;1.80;0.70;;;;;;;6.83;100.00;94929.25;1030790;28;20175;-68
2022/12/23 01:32:09;;;;;;;2.45;0.50;;;;;;;6.82;100.00;94938.13;1031014;28;20354;-70
2022/12/23 01:32:40;;;;;;;0.82;0.52;;;;;;;6.81;100.00;94925.38;1032419;28;20030;-70
2022/12/23 01:33:10;;;;;;;1.73;0.60;;;;;;;6.81;100.00;94931.34;1034862;28;20092;-70
2022/12/23 01:33:40;;;;;;;3.03;0.50;;;;;;;6.80;100.00;94937.59;1029757;28;20029;-68
2022/12/23 01:34:11;;;;;;;0.75;0.38;;;;;;;6.82;100.00;94948.56;1030307;28;20022;-69
2022/12/23 01:34:41;;;;;;;2.00;0.60;;;;;;;6.76;100.00;94926.13;1030407;28;20583;-70
2022/12/23 01:35:12;;;;;;;2.15;0.60;;;;;;;6.77;100.00;94940.75;1022650;28;20027;-70
2022/12/23 01:35:42;;;;;;;0.65;0.55;;;;;;;6.81;100.00;94933.97;1022054;29;20051;-69
2022/12/23 01:36:13;;;;;;;2.40;0.40;;;;;;;6.80;100.00;94940.19;1022780;29;20027;-69
2022/12/23 01:36:43;;;;;;;2.20;0.70;;;;;;;6.77;100.00;94932.91;1022727;29;20473;-69
2022/12/23 01:37:14;;;;;;;2.17;0.88;;;;;;;6.80;100.00;94940.19;1018851;29;20499;-70
2022/12/23 01:37:44;;;;;;;1.60;0.45;;;;;;;6.82;100.00;94929.53;1018989;28;20071;-68
2022/12/23 01:38:15;;;;;;;0.82;0.50;;;;;;;6.79;100.00;94940.47;1030714;28;20018;-69
2022/12/23 01:38:45;;;;;;;3.60;0.63;;;;;;;6.77;100.00;94935.53;1030888;28;20566;-69
2022/12/23 01:39:16;;;;;;;0.95;0.60;;;;;;;6.81;100.00;94933.97;1030125;28;20027;-71
2022/12/23 01:39:46;;;;;;;2.53;0.73;;;;;;;6.78;100.00;94939.69;1030703;28;20018;-70
2022/12/23 01:40:17;;;;;;;2.40;1.17;;;;;;;6.76;100.00;94939.16;1030837;28;20491;-68
2022/12/23 01:40:47;;;;;;;1.20;0.57;;;;;;;6.84;100.00;94935.25;1030920;28;20026;-69
2022/12/23 01:43:00;;;;;;;2.47;0.70;;;;;;;6.83;100.00;94941.50;1034447;28;20034;-70
2022/12/23 01:43:43;;;;;;;4.15;0.50;;;;;;;6.91;100.00;94945.44;1030442;28;20274;-68
2022/12/23 01:44:44;;;;;;;0.50;0.50;;;;;;;6.85;100.00;94942.81;1030881;28;20018;-69
2022/12/23 01:45:19;;;;;;;1.88;0.60;;;;;;;6.87;100.00;94944.38;1036413;28;20241;-69
2022/12/23 01:45:50;;;;;;;1.95;0.95;;;;;;;6.85;100.00;94942.81;1038033;28;20333;-71
2022/12/23 01:46:20;;;;;;;0.85;0.70;;;;;;;6.86;100.00;94943.59;1038676;28;20944;-69
2022/12/23 01:46:51;;;;;;;2.65;0.73;;;;;;;6.83;100.00;94937.06;1035365;28;20029;-69
2022/12/23 01:47:38;;;;;;;2.25;0.85;;;;;;;6.80;100.00;94942.81;1026452;28;20050;-69
2022/12/23 01:48:12;;;;;;;0.98;0.68;;;;;;;6.79;100.00;94928.22;1027025;28;20023;-69
2022/12/23 01:48:45;;;;;;;3.47;1.58;;;;;;;6.80;100.00;94924.56;1026276;28;20265;-69
2022/12/23 01:49:15;;;;;;;0.75;0.60;;;;;;;6.86;100.00;94941.00;1032894;28;20288;-70
2022/12/23 01:49:46;;;;;;;0.80;0.57;;;;;;;6.87;100.00;94933.94;1030571;28;20280;-70
2022/12/23 01:50:35;;;;;;;0.60;0.60;;;;;;;6.87;100.00;94939.94;1026851;28;20019;-70
2022/12/23 01:51:09;;;;;;;0.60;0.60;;;;;;;6.80;100.00;94929.78;1030615;28;20883;-69
2022/12/23 01:51:40;;;;;;;0.77;0.60;;;;;;;6.85;100.00;94937.63;1034197;28;20364;-69
2022/12/23 01:52:10;;;;;;;1.20;0.60;;;;;;;6.87;100.00;94933.94;1030824;28;20257;-70
2022/12/23 01:52:45;;;;;;;3.15;0.70;;;;;;;6.84;100.00;94940.47;1030522;28;20022;-70
2022/12/23 01:53:27;;;;;;;1.85;0.52;;;;;;;6.89;100.00;94937.09;1026503;28;20034;-71
2022/12/23 01:53:59;;;;;;;1.45;0.57;;;;;;;6.92;100.00;94937.38;1026593;28;20787;-69
2022/12/23 01:54:30;;;;;;;2.25;0.70;;;;;;;6.94;100.00;94939.69;1030483;28;20289;-69
2022/12/23 01:55:00;;;;;;;0.75;0.40;;;;;;;6.94;100.00;94939.69;1034632;28;20842;-70
2022/12/23 01:55:33;;;;;;;1.35;0.70;;;;;;;6.87;100.00;94929.53;1037970;28;20394;-71
2022/12/23 01:56:09;;;;;;;2.30;0.80;;;;;;;6.90;100.00;94936.03;1038618;28;20068;-70
2022/12/23 01:56:40;;;;;;;1.17;0.68;;;;;;;6.95;100.00;94942.06;1029473;28;20317;-68
2022/12/23 01:57:10;;;;;;;1.00;0.85;;;;;;;6.90;100.00;94936.81;1036626;28;20369;-69
2022/12/23 01:57:41;;;;;;;1.98;0.80;;;;;;;6.88;100.00;94930.31;1035250;28;20044;-69
2022/12/23 01:58:14;;;;;;;0.88;0.60;;;;;;;6.91;100.00;94941.03;1028329;28;20386;-69
2022/12/23 01:58:50;;;;;;;5.65;0.77;;;;;;;6.90;100.00;94931.59;1018401;29;20513;-70
2022/12/23 02:03:41;;;;;;;2.53;1.00;;;;;;;6.97;100.00;94954.81;1037053;28;20322;-69
2022/12/23 02:04:14;;;;;;;2.83;1.25;;;;;;;6.97;100.00;94953.00;1034394;28;21113;-71
2022/12/23 02:04:45;;;;;;;3.08;0.82;;;;;;;6.96;100.00;94953.28;1034384;28;20851;-71
2022/12/23 02:05:15;;;;;;;1.50;1.15;;;;;;;6.97;100.00;94954.81;1034511;28;20295;-69
2022/12/23 02:05:46;;;;;;;1.38;0.65;;;;;;;6.97;100.00;94955.59;1025772;28;20027;-70
2022/12/23 02:09:18;;;;;;;1.52;0.57;;;;;;;7.02;100.00;94947.81;1022078;29;20308;-69
2022/12/23 02:09:49;;;;;;;1.35;0.55;;;;;;;7.06;100.00;94959.28;1020751;28;20329;-70
2022/12/23 02:10:19;;;;;;;0.90;0.60;;;;;;;7.04;100.00;94960.56;1020975;28;20375;-68
2022/12/23 02:10:55;;;;;;;1.42;0.85;;;;;;;7.01;100.00;94954.06;1022254;29;20015;-69
2022/12/23 02:11:35;;;;;;;0.77;0.77;;;;;;;6.98;100.00;94956.41;1031687;28;20180;-69
2022/12/23 02:12:40;;;;;;;2.95;0.75;;;;;;;7.03;100.00;94969.44;1034541;28;20257;-68
2022/12/23 02:13:15;;;;;;;1.52;0.68;;;;;;;7.04;100.00;94955.34;1032114;28;20817;-71
2022/12/23 02:16:17;;;;;;;1.23;0.70;;;;;;;7.05;100.00;94960.34;1034303;28;20269;-68
2022/12/23 02:16:58;;;;;;;2.28;0.82;;;;;;;7.08;100.00;94957.22;1037522;28;20414;-70
2022/12/23 02:17:51;;;;;;;2.30;0.73;;;;;;;7.06;100.00;94967.09;1037909;28;20268;-69
2022/12/23 02:18:42;;;;;;;2.13;0.70;;;;;;;7.05;100.00;94972.59;1030940;28;20030;-69
2022/12/23 02:19:15;;;;;;;3.83;0.95;;;;;;;7.02;100.00;94973.09;1034698;28;20272;-70
2022/12/23 02:20:10;;;;;;;1.80;0.70;;;;;;;7.00;100.00;94985.63;1029653;28;20281;-70
2022/12/23 02:20:46;;;;;;;3.65;0.68;;;;;;;7.06;100.00;94972.31;1035068;28;20252;-70
2022/12/23 02:21:37;;;;;;;0.82;0.65;;;;;;;7.14;100.00;94980.69;1038517;28;20267;-69
2022/12/23 02:22:31;;;;;;;1.50;0.50;;;;;;;7.08;100.00;94977.28;1034181;28;20638;-69
2022/12/23 02:23:20;;;;;;;3.03;1.10;;;;;;;7.07;100.00;94980.94;1014010;29;20264;-69
2022/12/23 02:24:00;;;;;;;0.93;0.63;;;;;;;7.05;100.00;94988.25;1020649;28;20257;-70
2022/12/23 02:24:58;;;;;;;2.03;0.85;;;;;;;7.04;100.00;94977.03;1034961;28;20268;-70
2022/12/23 02:25:49;;;;;;;2.17;0.85;;;;;;;7.14;100.00;94978.06;1034510;28;20271;-69
2022/12/23 02:26:51;;;;;;;1.08;0.65;;;;;;;7.12;100.00;94980.16;1037250;28;20268;-70
2022/12/23 02:28:00;;;;;;;0.50;0.50;;;;;;;7.17;100.00;94986.16;1039087;28;20260;-71
2022/12/23 02:28:49;;;;;;;1.08;0.80;;;;;;;7.18;100.00;94984.34;1038867;28;20354;-70
2022/12/23 02:29:47;;;;;;;1.27;0.82;;;;;;;7.13;100.00;94987.72;1038305;28;20337;-71
2022/12/23 02:30:39;;;;;;;1.77;0.85;;;;;;;7.12;100.00;94985.38;1036400;28;20364;-70
2022/12/23 02:31:37;;;;;;;1.92;0.80;;;;;;;7.15;100.00;94987.47;1038531;28;20252;-70
2022/12/23 02:32:20;;;;;;;0.95;0.60;;;;;;;7.21;100.00;94989.03;1041645;28;20739;-71
2022/12/23 02:33:08;;;;;;;1.58;0.98;;;;;;;7.14;100.00;94981.44;1043527;28;20680;-69
2022/12/23 02:33:54;;;;;;;1.73;0.70;;;;;;;7.23;100.00;94986.97;1030691;28;20778;-69
2022/12/23 02:34:56;;;;;;;2.30;1.02;;;;;;;7.27;100.00;94986.16;1027097;28;20348;-69
2022/12/23 02:35:33;;;;;;;1.13;0.70;;;;;;;7.22;100.00;94980.19;1010807;29;20333;-70
2022/12/23 02:36:23;;;;;;;0.73;0.55;;;;;;;7.25;100.00;94990.88;1017165;28;20152;-70
2022/12/23 02:37:03;;;;;;;0.68;0.60;;;;;;;7.31;100.00;94992.47;1022509;28;20275;-69
2022/12/23 02:37:43;;;;;;;2.05;0.90;;;;;;;7.28;100.00;94992.19;1026712;28;20027;-70
2022/12/23 02:38:33;;;;;;;2.17;0.63;;;;;;;7.23;100.00;94994.78;1030759;28;20026;-70
2022/12/23 02:39:08;;;;;;;1.35;0.70;;;;;;;7.24;100.00;94997.16;1026992;28;20278;-70
2022/12/23 02:39:43;;;;;;;2.30;0.73;;;;;;;7.28;100.00;94995.59;1031019;28;20026;-69
2022/12/23 02:40:21;;;;;;;1.05;0.68;;;;;;;7.27;100.00;94988.78;1035193;28;20296;-70
2022/12/23 02:41:35;;;;;;;2.03;0.70;;;;;;;7.30;100.00;94993.47;1031275;28;20327;-70
2022/12/23 02:42:09;;;;;;;0.70;0.70;;;;;;;7.35;100.00;94982.28;1012349;29;20261;-70
2022/12/23 02:42:49;;;;;;;2.13;0.80;;;;;;;7.38;100.00;94988.78;1024634;28;20264;-70
2022/12/23 02:43:28;;;;;;;0.90;0.60;;;;;;;7.42;100.00;94984.63;1026833;28;20274;-70
2022/12/23 02:44:27;;;;;;;1.33;0.70;;;;;;;7.42;100.00;94987.25;1032851;28;20690;-69
2022/12/23 02:45:03;;;;;;;2.42;0.65;;;;;;;7.33;100.00;94995.56;1032016;28;20360;-70
2022/12/23 02:45:37;;;;;;;1.95;0.63;;;;;;;7.32;100.00;94994.00;1030637;28;20654;-70
2022/12/23 02:46:24;;;;;;;2.38;0.70;;;;;;;7.40;100.00;94997.16;1023198;29;20369;-71
2022/12/23 02:47:08;;;;;;;1.20;0.70;;;;;;;7.39;100.00;94998.97;1028077;28;20818;-69
2022/12/23 02:47:41;;;;;;;1.38;0.88;;;;;;;7.38;100.00;94983.56;1035102;28;20253;-70
2022/12/23 02:48:15;;;;;;;1.00;0.70;;;;;;;7.42;100.00;94995.06;1027330;28;20269;-69
2022/12/23 02:48:49;;;;;;;2.60;1.00;;;;;;;7.49;100.00;94988.53;1031007;28;20273;-70
2022/12/23 02:49:23;;;;;;;1.55;0.63;;;;;;;7.43;100.00;94978.34;1031169;28;20546;-70
2022/12/23 02:49:55;;;;;;;1.95;0.80;;;;;;;7.57;100.00;94989.84;1031095;28;20766;-69
2022/12/23 02:50:28;;;;;;;1.48;0.93;;;;;;;7.54;100.00;94985.94;1034954;28;20261;-70
2022/12/23 02:50:59;;;;;;;0.85;0.70;;;;;;;7.50;100.00;94989.31;1026793;28;20628;-69
2022/12/23 02:51:32;;;;;;;0.50;0.47;;;;;;;7.52;100.00;94992.47;1023117;29;20273;-70
2022/12/23 02:52:05;;;;;;;0.70;0.70;;;;;;;7.57;100.00;94990.63;1019080;29;20532;-68
2022/12/23 02:52:36;;;;;;;1.85;0.47;;;;;;;7.63;100.00;94994.00;1021027;28;20268;-70
2022/12/23 02:53:13;;;;;;;0.80;0.63;;;;;;;7.59;100.00;94982.53;1024918;28;20314;-69
2022/12/23 02:53:51;;;;;;;0.52;0.52;;;;;;;7.56;100.00;94977.84;1028475;28;20050;-69
2022/12/23 02:54:27;;;;;;;1.80;0.57;;;;;;;7.51;100.00;94977.81;1023075;29;20258;-69
2022/12/23 02:55:25;;;;;;;1.30;0.60;;;;;;;7.43;100.00;94986.19;1023189;29;20644;-70
2022/12/23 02:55:55;;;;;;;1.45;0.60;;;;;;;7.46;100.00;94993.50;1030279;28;20245;-69
2022/12/23 02:56:26;;;;;;;1.15;0.60;;;;;;;7.46;100.00;94989.06;1023279;29;20310;-69
2022/12/23 02:56:56;;;;;;;2.30;1.02;;;;;;;7.42;100.00;94988.03;1022967;28;20055;-70
2022/12/23 02:57:30;;;;;;;1.60;0.70;;;;;;;7.43;100.00;94973.13;1030880;28;20022;-70
2022/12/23 02:58:04;;;;;;;0.70;0.70;;;;;;;7.49;100.00;94992.97;1031021;28;20146;-69
2022/12/23 02:58:38;;;;;;;3.00;0.90;;;;;;;7.50;100.00;94984.09;1026940;28;20332;-69
2022/12/23 02:59:14;;;;;;;1.05;0.73;;;;;;;7.53;100.00;94991.41;1027310;28;20763;-69
2022/12/23 02:59:46;;;;;;;2.80;0.75;;;;;;;7.54;100.00;94995.56;1023143;29;20945;-69
2022/12/23 03:00:17;;;;;;;2.95;0.68;;;;;;;7.54;100.00;94988.56;1026826;28;20262;-70
2022/12/23 03:00:47;;;;;;;1.40;0.70;;;;;;;7.60;100.00;94991.94;1027110;28;20278;-69
2022/12/23 03:01:18;;;;;;;1.85;0.50;;;;;;;7.54;100.00;94975.50;1023074;29;20283;-70
2022/12/23 03:01:48;;;;;;;0.60;0.60;;;;;;;7.60;100.00;94981.47;1023302;29;20067;-70
2022/12/23 03:02:19;;;;;;;2.20;0.63;;;;;;;7.65;100.00;94996.38;1019005;29;20104;-69
2022/12/23 03:02:49;;;;;;;1.33;0.77;;;;;;;7.67;100.00;94984.59;1027062;28;20408;-70
2022/12/23 03:03:20;;;;;;;0.98;0.70;;;;;;;7.69;100.00;94985.13;1035213;28;20029;-70
2022/12/23 03:03:51;;;;;;;0.80;0.80;;;;;;;7.63;100.00;94994.00;1035002;28;20113;-70
2022/12/23 03:04:21;;;;;;;0.77;0.50;;;;;;;7.60;100.00;94981.47;1031297;28;20305;-69
2022/12/23 03:04:52;;;;;;;3.22;0.55;;;;;;;7.66;100.00;94998.72;1026991;28;20034;-70
2022/12/23 03:05:26;;;;;;;1.95;0.50;;;;;;;7.69;100.00;94992.97;1026980;28;20022;-70
2022/12/23 03:05:57;;;;;;;1.05;0.82;;;;;;;7.66;100.00;94992.72;1026666;28;20026;-70
2022/12/23 03:06:30;;;;;;;1.08;0.57;;;;;;;7.67;100.00;94987.22;1024761;28;20274;-70
2022/12/23 03:07:01;;;;;;;2.75;0.63;;;;;;;7.58;100.00;94973.16;1026937;28;20026;-70